»·PEaware :: N132KT KAPV-KNSI

N132KT :: KAPV-KNSI

FLIGHT INFORMATION

Flight Status: Arrived
Operator: Privately registered:
United States
More flights under this callsign
Pilot: Keith S. (1)
Aircraft: BEECH AIRCRAFT BARON
(BE58)
More flights by this aircraft type
Origin: KAPV Apple Valley
United States
Destination: KNSI San Nicolas I NOLF
United States
More flights between these airports :: More routes between these airports
Route:
File this flight plan on PilotEdge
Remarks:
Altitude:
(Current/Filed)
10,500ft
Speed:
(Current/Filed)
170kts
Departed: 27-Jun-19 12:28 PM
Arrived: 27-Jun-19 01:20 PM
Distance/Time
Traveled:
139nm/0:51
Distance/Time
To Go:
Arrived

Flight Plot

Page will automatically refresh every two minutes.

Flight plan parsing failed; only flown route is shown


Map Options




Map Legend


Flown Route
Filed Route
Departure Airport
Arrival Airport
Navaid (VOR, NDB)
Fix

Horizontal Profiles

Position Reports

Time Latitude Longitude Heading Altitude Ground
Speed
27-Jun-19 12:26 34.536648 -117.224704 232 4798ft 132kts
27-Jun-19 12:27 34.514255 -117.259210 232 5974ft 130kts
27-Jun-19 12:28 34.492599 -117.294279 235 7105ft 130kts
27-Jun-19 12:29 34.472017 -117.331094 235 8094ft 136kts
27-Jun-19 12:30 34.450392 -117.369577 235 8989ft 138kts
27-Jun-19 12:31 34.428659 -117.408157 235 9858ft 138kts
27-Jun-19 12:32 34.407231 -117.446144 235 10441ft 144kts
27-Jun-19 12:33 34.382822 -117.489403 235 10424ft 161kts
27-Jun-19 12:34 34.357018 -117.535054 235 10421ft 165kts
27-Jun-19 12:35 34.330042 -117.580260 216 10413ft 166kts
27-Jun-19 12:36 34.290907 -117.610414 213 10414ft 167kts
27-Jun-19 12:37 34.263918 -117.654529 236 10396ft 166kts
27-Jun-19 12:38 34.237907 -117.701563 236 10376ft 167kts
27-Jun-19 12:39 34.211993 -117.748283 235 10356ft 166kts
27-Jun-19 12:40 34.186026 -117.795016 235 10336ft 166kts
27-Jun-19 12:41 34.160153 -117.841514 235 10317ft 165kts
27-Jun-19 12:42 34.134481 -117.887591 235 10314ft 165kts
27-Jun-19 12:43 34.108714 -117.933785 236 10315ft 165kts
27-Jun-19 12:44 34.083011 -117.979805 236 10315ft 165kts
27-Jun-19 12:45 34.057247 -118.025879 236 10325ft 165kts
27-Jun-19 12:46 34.031296 -118.072226 236 10338ft 165kts
27-Jun-19 12:47 34.005293 -118.118605 236 10358ft 165kts
27-Jun-19 12:48 33.979300 -118.164913 236 10377ft 166kts
27-Jun-19 12:49 33.953288 -118.211213 235 10391ft 166kts
27-Jun-19 12:51 33.927166 -118.257592 235 10401ft 166kts
27-Jun-19 12:52 33.901066 -118.303910 235 10404ft 166kts
27-Jun-19 12:53 33.876262 -118.347865 235 10407ft 166kts
27-Jun-19 12:54 33.850042 -118.394274 235 10407ft 166kts
27-Jun-19 12:55 33.823772 -118.440714 235 10408ft 166kts
27-Jun-19 12:56 33.797583 -118.486951 235 10407ft 166kts
27-Jun-19 12:57 33.771447 -118.533037 235 10406ft 166kts
27-Jun-19 12:58 33.745249 -118.579176 235 10408ft 166kts
27-Jun-19 12:59 33.719173 -118.625041 235 10415ft 166kts
27-Jun-19 13:00 33.693243 -118.670590 235 10423ft 166kts
27-Jun-19 13:01 33.666986 -118.716659 235 10429ft 166kts
27-Jun-19 13:02 33.640761 -118.762610 235 10434ft 166kts
27-Jun-19 13:03 33.614573 -118.808438 235 10440ft 166kts
27-Jun-19 13:04 33.588294 -118.854373 235 10439ft 165kts
27-Jun-19 13:05 33.562139 -118.900064 234 10437ft 165kts
27-Jun-19 13:05 33.540479 -118.937785 235 10435ft 164kts
27-Jun-19 13:07 33.510369 -118.990224 235 10432ft 163kts
27-Jun-19 13:08 33.484575 -119.035108 236 10431ft 162kts
27-Jun-19 13:08 33.463222 -119.072221 236 10432ft 162kts
27-Jun-19 13:10 33.433338 -119.124077 236 10433ft 161kts
27-Jun-19 13:11 33.407773 -119.168379 236 10433ft 161kts
27-Jun-19 13:11 33.386372 -119.205423 236 10432ft 161kts
27-Jun-19 13:12 33.360728 -119.249764 236 10432ft 161kts
27-Jun-19 13:14 33.330023 -119.302804 236 10024ft 178kts
27-Jun-19 13:14 33.305844 -119.344493 237 9393ft 184kts
27-Jun-19 13:15 33.276584 -119.394883 238 7322ft 188kts
27-Jun-19 13:17 33.241055 -119.456030 238 4341ft 193kts
27-Jun-19 13:17 33.223310 -119.492686 303 2285ft 126kts
27-Jun-19 13:18 33.248912 -119.472165 92 671ft 108kts
27-Jun-19 13:19 33.242726 -119.464579 199 499ft 4kts

Navigation Log

Ident Type
Flight plan parsing failed, navigation log unavailable